sensor_id;sensor_type;location;lat;lon;timestamp;P1;durP1;ratioP1;P2;durP2;ratioP2
20910;SDS011;10615;42.702;23.314;2023-01-09T00:01:00;133.13;;;77.25;;
20910;SDS011;10615;42.702;23.314;2023-01-09T00:02:02;129.85;;;76.00;;
20910;SDS011;10615;42.702;23.314;2023-01-09T00:03:04;134.63;;;78.10;;
20910;SDS011;10615;42.702;23.314;2023-01-09T00:04:04;130.73;;;74.72;;
20910;SDS011;10615;42.702;23.314;2023-01-09T00:05:06;126.50;;;72.10;;
20910;SDS011;10615;42.702;23.314;2023-01-09T00:06:09;123.10;;;70.93;;
20910;SDS011;10615;42.702;23.314;2023-01-09T00:07:10;125.80;;;68.80;;
20910;SDS011;10615;42.702;23.314;2023-01-09T00:08:10;122.90;;;71.05;;
20910;SDS011;10615;42.702;23.314;2023-01-09T00:09:11;118.18;;;68.13;;
20910;SDS011;10615;42.702;23.314;2023-01-09T00:10:12;123.85;;;68.25;;
20910;SDS011;10615;42.702;23.314;2023-01-09T00:11:14;117.70;;;68.60;;
20910;SDS011;10615;42.702;23.314;2023-01-09T00:12:15;116.85;;;69.07;;
20910;SDS011;10615;42.702;23.314;2023-01-09T00:13:15;118.05;;;68.80;;
20910;SDS011;10615;42.702;23.314;2023-01-09T00:14:17;113.47;;;66.25;;
20910;SDS011;10615;42.702;23.314;2023-01-09T00:15:18;119.68;;;69.30;;
20910;SDS011;10615;42.702;23.314;2023-01-09T00:16:19;112.50;;;67.28;;
20910;SDS011;10615;42.702;23.314;2023-01-09T00:17:20;112.65;;;64.95;;
20910;SDS011;10615;42.702;23.314;2023-01-09T00:18:20;114.50;;;65.20;;
20910;SDS011;10615;42.702;23.314;2023-01-09T00:19:21;114.75;;;65.15;;
20910;SDS011;10615;42.702;23.314;2023-01-09T00:20:22;113.00;;;66.38;;
20910;SDS011;10615;42.702;23.314;2023-01-09T00:21:22;107.10;;;64.40;;
20910;SDS011;10615;42.702;23.314;2023-01-09T00:22:23;116.63;;;66.13;;
20910;SDS011;10615;42.702;23.314;2023-01-09T00:23:24;116.45;;;68.47;;
20910;SDS011;10615;42.702;23.314;2023-01-09T00:24:24;118.93;;;67.05;;
20910;SDS011;10615;42.702;23.314;2023-01-09T00:25:25;120.88;;;66.60;;
20910;SDS011;10615;42.702;23.314;2023-01-09T00:26:26;119.07;;;67.85;;
20910;SDS011;10615;42.702;23.314;2023-01-09T00:27:29;115.43;;;67.55;;
20910;SDS011;10615;42.702;23.314;2023-01-09T00:28:31;105.22;;;64.55;;
20910;SDS011;10615;42.702;23.314;2023-01-09T00:29:33;107.97;;;64.68;;
20910;SDS011;10615;42.702;23.314;2023-01-09T00:30:34;104.38;;;65.43;;
20910;SDS011;10615;42.702;23.314;2023-01-09T00:31:34;103.20;;;63.47;;
20910;SDS011;10615;42.702;23.314;2023-01-09T00:32:35;107.50;;;63.83;;
20910;SDS011;10615;42.702;23.314;2023-01-09T00:33:45;112.95;;;65.63;;
20910;SDS011;10615;42.702;23.314;2023-01-09T00:34:51;105.75;;;61.78;;
20910;SDS011;10615;42.702;23.314;2023-01-09T00:35:53;105.72;;;62.58;;
20910;SDS011;10615;42.702;23.314;2023-01-09T00:36:53;108.95;;;64.07;;
20910;SDS011;10615;42.702;23.314;2023-01-09T00:37:55;99.88;;;62.75;;
20910;SDS011;10615;42.702;23.314;2023-01-09T00:38:56;104.43;;;62.50;;
20910;SDS011;10615;42.702;23.314;2023-01-09T00:39:57;96.65;;;59.97;;
20910;SDS011;10615;42.702;23.314;2023-01-09T00:40:57;100.72;;;62.22;;
20910;SDS011;10615;42.702;23.314;2023-01-09T00:42:00;98.03;;;61.40;;
20910;SDS011;10615;42.702;23.314;2023-01-09T00:43:00;95.97;;;58.47;;
20910;SDS011;10615;42.702;23.314;2023-01-09T00:44:02;94.07;;;59.88;;
20910;SDS011;10615;42.702;23.314;2023-01-09T00:45:08;96.20;;;60.20;;
20910;SDS011;10615;42.702;23.314;2023-01-09T00:46:12;95.38;;;58.55;;
20910;SDS011;10615;42.702;23.314;2023-01-09T00:47:16;95.68;;;57.80;;
20910;SDS011;10615;42.702;23.314;2023-01-09T00:48:23;97.43;;;60.88;;
20910;SDS011;10615;42.702;23.314;2023-01-09T00:49:29;97.90;;;59.92;;
20910;SDS011;10615;42.702;23.314;2023-01-09T00:50:32;95.53;;;59.78;;
20910;SDS011;10615;42.702;23.314;2023-01-09T00:51:34;93.13;;;58.40;;
20910;SDS011;10615;42.702;23.314;2023-01-09T00:52:35;94.15;;;58.15;;
20910;SDS011;10615;42.702;23.314;2023-01-09T00:53:38;88.93;;;56.83;;
20910;SDS011;10615;42.702;23.314;2023-01-09T00:54:41;88.13;;;54.65;;
20910;SDS011;10615;42.702;23.314;2023-01-09T00:55:43;90.97;;;56.75;;
20910;SDS011;10615;42.702;23.314;2023-01-09T00:56:43;88.43;;;55.38;;
20910;SDS011;10615;42.702;23.314;2023-01-09T00:57:45;83.40;;;52.67;;
20910;SDS011;10615;42.702;23.314;2023-01-09T00:58:46;81.82;;;49.90;;
20910;SDS011;10615;42.702;23.314;2023-01-09T00:59:47;83.45;;;49.90;;
20910;SDS011;10615;42.702;23.314;2023-01-09T01:00:48;80.30;;;51.72;;
20910;SDS011;10615;42.702;23.314;2023-01-09T01:01:48;79.80;;;49.55;;
20910;SDS011;10615;42.702;23.314;2023-01-09T01:02:49;79.82;;;49.15;;
20910;SDS011;10615;42.702;23.314;2023-01-09T01:03:50;74.50;;;46.03;;
20910;SDS011;10615;42.702;23.314;2023-01-09T01:04:50;67.47;;;44.22;;
20910;SDS011;10615;42.702;23.314;2023-01-09T01:06:10;63.10;;;40.10;;
20910;SDS011;10615;42.702;23.314;2023-01-09T01:07:29;60.22;;;38.08;;
20910;SDS011;10615;42.702;23.314;2023-01-09T01:08:38;57.03;;;35.95;;
20910;SDS011;10615;42.702;23.314;2023-01-09T01:09:39;53.20;;;37.00;;
20910;SDS011;10615;42.702;23.314;2023-01-09T01:10:40;56.45;;;37.28;;
20910;SDS011;10615;42.702;23.314;2023-01-09T01:11:41;61.75;;;37.50;;
20910;SDS011;10615;42.702;23.314;2023-01-09T01:12:42;67.32;;;39.28;;
20910;SDS011;10615;42.702;23.314;2023-01-09T01:13:43;62.83;;;39.13;;
20910;SDS011;10615;42.702;23.314;2023-01-09T01:14:43;63.35;;;39.97;;
20910;SDS011;10615;42.702;23.314;2023-01-09T01:15:44;61.10;;;39.08;;
20910;SDS011;10615;42.702;23.314;2023-01-09T01:16:45;64.78;;;41.33;;
20910;SDS011;10615;42.702;23.314;2023-01-09T01:17:46;61.17;;;40.00;;
20910;SDS011;10615;42.702;23.314;2023-01-09T01:18:47;65.75;;;42.20;;
20910;SDS011;10615;42.702;23.314;2023-01-09T01:19:49;74.65;;;43.78;;
20910;SDS011;10615;42.702;23.314;2023-01-09T01:20:50;83.10;;;45.50;;
20910;SDS011;10615;42.702;23.314;2023-01-09T01:21:50;92.18;;;49.78;;
20910;SDS011;10615;42.702;23.314;2023-01-09T01:22:51;83.53;;;48.17;;
20910;SDS011;10615;42.702;23.314;2023-01-09T01:23:52;85.13;;;46.25;;
20910;SDS011;10615;42.702;23.314;2023-01-09T01:24:52;82.75;;;45.72;;
20910;SDS011;10615;42.702;23.314;2023-01-09T01:25:53;86.95;;;46.53;;
20910;SDS011;10615;42.702;23.314;2023-01-09T01:26:53;78.38;;;46.55;;
20910;SDS011;10615;42.702;23.314;2023-01-09T01:27:54;75.75;;;44.47;;
20910;SDS011;10615;42.702;23.314;2023-01-09T01:28:55;76.57;;;46.40;;
20910;SDS011;10615;42.702;23.314;2023-01-09T01:29:57;77.03;;;47.45;;
20910;SDS011;10615;42.702;23.314;2023-01-09T01:30:58;82.38;;;48.33;;
20910;SDS011;10615;42.702;23.314;2023-01-09T01:31:59;80.38;;;48.17;;
20910;SDS011;10615;42.702;23.314;2023-01-09T01:33:00;81.32;;;48.95;;
20910;SDS011;10615;42.702;23.314;2023-01-09T01:34:00;82.22;;;48.15;;
20910;SDS011;10615;42.702;23.314;2023-01-09T01:35:01;81.85;;;47.78;;
20910;SDS011;10615;42.702;23.314;2023-01-09T01:36:03;79.07;;;47.92;;
20910;SDS011;10615;42.702;23.314;2023-01-09T01:37:06;81.53;;;48.45;;
20910;SDS011;10615;42.702;23.314;2023-01-09T01:38:07;92.95;;;55.08;;
20910;SDS011;10615;42.702;23.314;2023-01-09T01:39:07;91.97;;;54.63;;
20910;SDS011;10615;42.702;23.314;2023-01-09T01:40:09;90.13;;;52.35;;
20910;SDS011;10615;42.702;23.314;2023-01-09T01:41:10;87.68;;;51.22;;
20910;SDS011;10615;42.702;23.314;2023-01-09T01:42:11;89.57;;;52.70;;
20910;SDS011;10615;42.702;23.314;2023-01-09T01:43:12;93.90;;;53.72;;
20910;SDS011;10615;42.702;23.314;2023-01-09T01:45:51;87.68;;;50.13;;
20910;SDS011;10615;42.702;23.314;2023-01-09T01:46:52;87.07;;;49.85;;
20910;SDS011;10615;42.702;23.314;2023-01-09T01:48:07;89.40;;;50.33;;
20910;SDS011;10615;42.702;23.314;2023-01-09T01:49:13;91.15;;;51.33;;
20910;SDS011;10615;42.702;23.314;2023-01-09T01:50:17;113.38;;;55.05;;
20910;SDS011;10615;42.702;23.314;2023-01-09T01:51:27;122.30;;;59.30;;
20910;SDS011;10615;42.702;23.314;2023-01-09T01:52:30;140.27;;;61.80;;
20910;SDS011;10615;42.702;23.314;2023-01-09T01:54:54;129.48;;;59.97;;
20910;SDS011;10615;42.702;23.314;2023-01-09T01:56:01;114.00;;;58.92;;
20910;SDS011;10615;42.702;23.314;2023-01-09T01:57:06;117.85;;;58.78;;
20910;SDS011;10615;42.702;23.314;2023-01-09T01:58:06;121.78;;;61.55;;
20910;SDS011;10615;42.702;23.314;2023-01-09T01:59:12;122.28;;;60.08;;
20910;SDS011;10615;42.702;23.314;2023-01-09T02:00:22;119.00;;;57.25;;
20910;SDS011;10615;42.702;23.314;2023-01-09T02:01:29;115.43;;;55.88;;
20910;SDS011;10615;42.702;23.314;2023-01-09T02:02:32;113.43;;;56.40;;
20910;SDS011;10615;42.702;23.314;2023-01-09T02:03:32;121.63;;;57.75;;
20910;SDS011;10615;42.702;23.314;2023-01-09T02:04:34;104.10;;;54.80;;
20910;SDS011;10615;42.702;23.314;2023-01-09T02:05:38;99.75;;;54.65;;
20910;SDS011;10615;42.702;23.314;2023-01-09T02:06:40;103.07;;;53.15;;
20910;SDS011;10615;42.702;23.314;2023-01-09T02:07:42;97.55;;;52.15;;
20910;SDS011;10615;42.702;23.314;2023-01-09T02:08:43;89.40;;;49.15;;
20910;SDS011;10615;42.702;23.314;2023-01-09T02:09:44;91.72;;;50.10;;
20910;SDS011;10615;42.702;23.314;2023-01-09T02:10:45;97.53;;;51.30;;
20910;SDS011;10615;42.702;23.314;2023-01-09T02:11:48;92.63;;;49.17;;
20910;SDS011;10615;42.702;23.314;2023-01-09T02:12:55;81.07;;;47.30;;
20910;SDS011;10615;42.702;23.314;2023-01-09T02:13:55;87.13;;;47.15;;
20910;SDS011;10615;42.702;23.314;2023-01-09T02:15:07;80.68;;;46.65;;
20910;SDS011;10615;42.702;23.314;2023-01-09T02:30:45;67.63;;;41.08;;
20910;SDS011;10615;42.702;23.314;2023-01-09T02:31:58;66.55;;;41.58;;
20910;SDS011;10615;42.702;23.314;2023-01-09T02:34:27;60.70;;;38.55;;
20910;SDS011;10615;42.702;23.314;2023-01-09T02:38:17;133.90;;;78.43;;
20910;SDS011;10615;42.702;23.314;2023-01-09T02:40:38;308.83;;;191.82;;
20910;SDS011;10615;42.702;23.314;2023-01-09T02:42:23;158.63;;;95.95;;
20910;SDS011;10615;42.702;23.314;2023-01-09T02:43:26;140.07;;;83.32;;
20910;SDS011;10615;42.702;23.314;2023-01-09T02:44:27;84.47;;;50.50;;
20910;SDS011;10615;42.702;23.314;2023-01-09T02:45:29;69.43;;;43.33;;
20910;SDS011;10615;42.702;23.314;2023-01-09T02:46:30;66.88;;;40.28;;
20910;SDS011;10615;42.702;23.314;2023-01-09T02:47:37;71.15;;;43.90;;
20910;SDS011;10615;42.702;23.314;2023-01-09T02:48:42;108.65;;;59.85;;
20910;SDS011;10615;42.702;23.314;2023-01-09T02:49:49;115.97;;;58.47;;
20910;SDS011;10615;42.702;23.314;2023-01-09T02:51:11;79.78;;;43.42;;
20910;SDS011;10615;42.702;23.314;2023-01-09T02:53:50;118.93;;;52.90;;
20910;SDS011;10615;42.702;23.314;2023-01-09T02:56:51;242.15;;;107.65;;
20910;SDS011;10615;42.702;23.314;2023-01-09T03:00:33;238.35;;;106.45;;
20910;SDS011;10615;42.702;23.314;2023-01-09T03:01:59;200.20;;;98.95;;
20910;SDS011;10615;42.702;23.314;2023-01-09T03:04:57;182.55;;;92.80;;
20910;SDS011;10615;42.702;23.314;2023-01-09T03:06:02;187.73;;;95.75;;
20910;SDS011;10615;42.702;23.314;2023-01-09T03:08:26;191.80;;;96.25;;
20910;SDS011;10615;42.702;23.314;2023-01-09T03:09:34;187.27;;;92.80;;
20910;SDS011;10615;42.702;23.314;2023-01-09T03:11:20;165.60;;;88.45;;
20910;SDS011;10615;42.702;23.314;2023-01-09T03:12:08;157.40;;;82.20;;
20910;SDS011;10615;42.702;23.314;2023-01-09T03:13:17;139.13;;;76.18;;
20910;SDS011;10615;42.702;23.314;2023-01-09T03:14:21;124.30;;;68.72;;
20910;SDS011;10615;42.702;23.314;2023-01-09T03:15:25;154.50;;;81.32;;
20910;SDS011;10615;42.702;23.314;2023-01-09T03:16:31;160.93;;;83.50;;
20910;SDS011;10615;42.702;23.314;2023-01-09T03:17:35;141.10;;;79.22;;
20910;SDS011;10615;42.702;23.314;2023-01-09T03:18:39;111.32;;;61.97;;
20910;SDS011;10615;42.702;23.314;2023-01-09T03:19:41;115.30;;;65.35;;
20910;SDS011;10615;42.702;23.314;2023-01-09T03:20:44;128.30;;;70.18;;
20910;SDS011;10615;42.702;23.314;2023-01-09T03:21:46;112.97;;;67.28;;
20910;SDS011;10615;42.702;23.314;2023-01-09T03:22:59;101.85;;;60.88;;
20910;SDS011;10615;42.702;23.314;2023-01-09T03:24:01;104.43;;;61.83;;
20910;SDS011;10615;42.702;23.314;2023-01-09T03:25:02;111.50;;;63.20;;
20910;SDS011;10615;42.702;23.314;2023-01-09T03:26:03;109.25;;;63.25;;
20910;SDS011;10615;42.702;23.314;2023-01-09T03:27:05;101.70;;;58.75;;
20910;SDS011;10615;42.702;23.314;2023-01-09T03:28:07;94.28;;;55.38;;
20910;SDS011;10615;42.702;23.314;2023-01-09T03:29:17;98.20;;;56.95;;
20910;SDS011;10615;42.702;23.314;2023-01-09T03:30:18;94.63;;;55.50;;
20910;SDS011;10615;42.702;23.314;2023-01-09T03:31:18;99.50;;;57.08;;
20910;SDS011;10615;42.702;23.314;2023-01-09T03:32:19;91.28;;;53.53;;
20910;SDS011;10615;42.702;23.314;2023-01-09T03:33:20;95.75;;;54.78;;
20910;SDS011;10615;42.702;23.314;2023-01-09T03:34:20;92.53;;;54.20;;
20910;SDS011;10615;42.702;23.314;2023-01-09T03:35:21;94.53;;;53.63;;
20910;SDS011;10615;42.702;23.314;2023-01-09T03:36:23;85.47;;;50.45;;
20910;SDS011;10615;42.702;23.314;2023-01-09T03:37:24;86.32;;;50.78;;
20910;SDS011;10615;42.702;23.314;2023-01-09T03:38:24;86.15;;;50.03;;
20910;SDS011;10615;42.702;23.314;2023-01-09T03:39:25;83.50;;;49.53;;
20910;SDS011;10615;42.702;23.314;2023-01-09T03:40:26;83.05;;;49.88;;
20910;SDS011;10615;42.702;23.314;2023-01-09T03:41:26;77.60;;;48.60;;
20910;SDS011;10615;42.702;23.314;2023-01-09T03:42:27;83.47;;;49.92;;
20910;SDS011;10615;42.702;23.314;2023-01-09T03:43:27;81.85;;;48.05;;
20910;SDS011;10615;42.702;23.314;2023-01-09T03:44:28;82.72;;;49.65;;
20910;SDS011;10615;42.702;23.314;2023-01-09T03:45:29;81.47;;;47.95;;
20910;SDS011;10615;42.702;23.314;2023-01-09T03:46:29;77.97;;;49.42;;
20910;SDS011;10615;42.702;23.314;2023-01-09T03:47:30;73.57;;;47.35;;
20910;SDS011;10615;42.702;23.314;2023-01-09T03:48:31;77.78;;;50.00;;
20910;SDS011;10615;42.702;23.314;2023-01-09T03:49:31;79.15;;;49.58;;
20910;SDS011;10615;42.702;23.314;2023-01-09T03:50:32;76.82;;;47.65;;
20910;SDS011;10615;42.702;23.314;2023-01-09T03:51:33;79.57;;;48.90;;
20910;SDS011;10615;42.702;23.314;2023-01-09T03:52:33;77.22;;;49.72;;
20910;SDS011;10615;42.702;23.314;2023-01-09T03:53:35;75.35;;;46.70;;
20910;SDS011;10615;42.702;23.314;2023-01-09T03:54:35;77.57;;;46.80;;
20910;SDS011;10615;42.702;23.314;2023-01-09T03:55:38;71.80;;;46.50;;
20910;SDS011;10615;42.702;23.314;2023-01-09T03:56:42;73.32;;;45.65;;
20910;SDS011;10615;42.702;23.314;2023-01-09T03:57:43;70.68;;;44.58;;
20910;SDS011;10615;42.702;23.314;2023-01-09T03:58:43;69.22;;;43.20;;
20910;SDS011;10615;42.702;23.314;2023-01-09T03:59:44;69.97;;;43.92;;
20910;SDS011;10615;42.702;23.314;2023-01-09T04:00:45;68.07;;;44.00;;
20910;SDS011;10615;42.702;23.314;2023-01-09T04:01:47;65.47;;;44.05;;
20910;SDS011;10615;42.702;23.314;2023-01-09T04:02:48;67.13;;;42.35;;
20910;SDS011;10615;42.702;23.314;2023-01-09T04:03:49;66.03;;;43.60;;
20910;SDS011;10615;42.702;23.314;2023-01-09T04:04:49;64.63;;;42.88;;
20910;SDS011;10615;42.702;23.314;2023-01-09T04:05:50;65.32;;;43.15;;
20910;SDS011;10615;42.702;23.314;2023-01-09T04:06:51;68.20;;;43.03;;
20910;SDS011;10615;42.702;23.314;2023-01-09T04:07:51;67.10;;;41.95;;
20910;SDS011;10615;42.702;23.314;2023-01-09T04:08:52;62.95;;;40.28;;
20910;SDS011;10615;42.702;23.314;2023-01-09T04:09:52;60.33;;;38.53;;
20910;SDS011;10615;42.702;23.314;2023-01-09T04:10:53;59.72;;;38.28;;
20910;SDS011;10615;42.702;23.314;2023-01-09T04:11:54;57.40;;;39.13;;
20910;SDS011;10615;42.702;23.314;2023-01-09T04:12:54;62.20;;;41.10;;
20910;SDS011;10615;42.702;23.314;2023-01-09T04:13:55;61.60;;;40.22;;
20910;SDS011;10615;42.702;23.314;2023-01-09T04:14:56;63.05;;;40.92;;
20910;SDS011;10615;42.702;23.314;2023-01-09T04:15:56;60.92;;;40.78;;
20910;SDS011;10615;42.702;23.314;2023-01-09T04:16:57;60.03;;;40.60;;
20910;SDS011;10615;42.702;23.314;2023-01-09T04:17:58;62.42;;;40.67;;
20910;SDS011;10615;42.702;23.314;2023-01-09T04:18:58;60.95;;;41.13;;
20910;SDS011;10615;42.702;23.314;2023-01-09T04:19:59;62.92;;;39.47;;
20910;SDS011;10615;42.702;23.314;2023-01-09T04:21:00;61.70;;;39.78;;
20910;SDS011;10615;42.702;23.314;2023-01-09T04:22:00;63.47;;;40.92;;
20910;SDS011;10615;42.702;23.314;2023-01-09T04:23:01;67.20;;;43.63;;
20910;SDS011;10615;42.702;23.314;2023-01-09T04:24:02;70.32;;;43.70;;
20910;SDS011;10615;42.702;23.314;2023-01-09T04:25:03;63.00;;;41.88;;
20910;SDS011;10615;42.702;23.314;2023-01-09T04:26:04;65.90;;;42.85;;
20910;SDS011;10615;42.702;23.314;2023-01-09T04:27:05;64.05;;;42.42;;
20910;SDS011;10615;42.702;23.314;2023-01-09T04:28:05;61.53;;;40.67;;
20910;SDS011;10615;42.702;23.314;2023-01-09T04:29:06;66.25;;;42.67;;
20910;SDS011;10615;42.702;23.314;2023-01-09T04:30:07;59.28;;;41.05;;
20910;SDS011;10615;42.702;23.314;2023-01-09T04:31:08;67.10;;;42.42;;
20910;SDS011;10615;42.702;23.314;2023-01-09T04:32:08;63.22;;;40.33;;
20910;SDS011;10615;42.702;23.314;2023-01-09T04:33:09;64.38;;;40.55;;
20910;SDS011;10615;42.702;23.314;2023-01-09T04:34:10;65.55;;;40.40;;
20910;SDS011;10615;42.702;23.314;2023-01-09T04:35:10;59.20;;;39.92;;
20910;SDS011;10615;42.702;23.314;2023-01-09T04:36:11;58.58;;;39.22;;
20910;SDS011;10615;42.702;23.314;2023-01-09T04:37:12;58.97;;;38.42;;
20910;SDS011;10615;42.702;23.314;2023-01-09T04:38:12;58.97;;;38.22;;
20910;SDS011;10615;42.702;23.314;2023-01-09T04:39:13;62.70;;;39.60;;
20910;SDS011;10615;42.702;23.314;2023-01-09T04:40:14;72.03;;;42.25;;
20910;SDS011;10615;42.702;23.314;2023-01-09T04:41:14;74.78;;;44.15;;
20910;SDS011;10615;42.702;23.314;2023-01-09T04:42:35;77.88;;;45.97;;
20910;SDS011;10615;42.702;23.314;2023-01-09T04:43:39;70.85;;;43.28;;
20910;SDS011;10615;42.702;23.314;2023-01-09T04:44:41;91.53;;;46.53;;
20910;SDS011;10615;42.702;23.314;2023-01-09T04:45:41;84.25;;;46.35;;
20910;SDS011;10615;42.702;23.314;2023-01-09T04:46:42;71.85;;;43.28;;
20910;SDS011;10615;42.702;23.314;2023-01-09T04:47:43;74.38;;;44.00;;
20910;SDS011;10615;42.702;23.314;2023-01-09T04:48:44;64.15;;;41.33;;
20910;SDS011;10615;42.702;23.314;2023-01-09T04:49:44;63.67;;;41.30;;
20910;SDS011;10615;42.702;23.314;2023-01-09T04:50:45;66.53;;;41.95;;
20910;SDS011;10615;42.702;23.314;2023-01-09T04:51:46;67.53;;;42.67;;
20910;SDS011;10615;42.702;23.314;2023-01-09T04:52:47;65.65;;;41.00;;
20910;SDS011;10615;42.702;23.314;2023-01-09T04:53:47;62.10;;;39.97;;
20910;SDS011;10615;42.702;23.314;2023-01-09T04:54:48;64.40;;;39.47;;
20910;SDS011;10615;42.702;23.314;2023-01-09T04:55:49;61.20;;;38.45;;
20910;SDS011;10615;42.702;23.314;2023-01-09T04:56:49;57.97;;;37.83;;
20910;SDS011;10615;42.702;23.314;2023-01-09T04:57:50;59.42;;;37.58;;
20910;SDS011;10615;42.702;23.314;2023-01-09T04:58:50;54.55;;;37.47;;
20910;SDS011;10615;42.702;23.314;2023-01-09T04:59:51;53.72;;;36.90;;
20910;SDS011;10615;42.702;23.314;2023-01-09T05:00:52;57.60;;;37.75;;
20910;SDS011;10615;42.702;23.314;2023-01-09T05:01:52;70.25;;;41.63;;
20910;SDS011;10615;42.702;23.314;2023-01-09T05:02:55;66.20;;;41.78;;
20910;SDS011;10615;42.702;23.314;2023-01-09T05:03:56;63.80;;;42.10;;
20910;SDS011;10615;42.702;23.314;2023-01-09T05:04:57;71.30;;;42.90;;
20910;SDS011;10615;42.702;23.314;2023-01-09T05:05:57;66.28;;;42.65;;
20910;SDS011;10615;42.702;23.314;2023-01-09T05:06:58;64.82;;;40.67;;
20910;SDS011;10615;42.702;23.314;2023-01-09T05:07:58;63.38;;;42.13;;
20910;SDS011;10615;42.702;23.314;2023-01-09T05:08:59;64.68;;;40.60;;
20910;SDS011;10615;42.702;23.314;2023-01-09T05:10:00;62.08;;;41.95;;
20910;SDS011;10615;42.702;23.314;2023-01-09T05:11:02;65.10;;;40.25;;
20910;SDS011;10615;42.702;23.314;2023-01-09T05:12:03;73.72;;;42.03;;
20910;SDS011;10615;42.702;23.314;2023-01-09T05:13:04;66.82;;;40.05;;
20910;SDS011;10615;42.702;23.314;2023-01-09T05:14:04;66.45;;;41.75;;
20910;SDS011;10615;42.702;23.314;2023-01-09T05:15:05;65.45;;;39.55;;
20910;SDS011;10615;42.702;23.314;2023-01-09T05:16:07;61.28;;;40.67;;
20910;SDS011;10615;42.702;23.314;2023-01-09T05:17:08;67.60;;;40.60;;
20910;SDS011;10615;42.702;23.314;2023-01-09T05:18:09;65.03;;;42.38;;
20910;SDS011;10615;42.702;23.314;2023-01-09T05:19:10;60.00;;;39.85;;
20910;SDS011;10615;42.702;23.314;2023-01-09T05:20:10;66.40;;;41.90;;
20910;SDS011;10615;42.702;23.314;2023-01-09T05:21:11;68.25;;;41.30;;
20910;SDS011;10615;42.702;23.314;2023-01-09T05:22:12;60.47;;;38.17;;
20910;SDS011;10615;42.702;23.314;2023-01-09T05:23:13;65.30;;;39.58;;
20910;SDS011;10615;42.702;23.314;2023-01-09T05:24:14;64.40;;;39.92;;
20910;SDS011;10615;42.702;23.314;2023-01-09T05:25:14;64.68;;;40.22;;
20910;SDS011;10615;42.702;23.314;2023-01-09T05:26:15;63.45;;;39.67;;
20910;SDS011;10615;42.702;23.314;2023-01-09T05:27:16;60.05;;;39.28;;
20910;SDS011;10615;42.702;23.314;2023-01-09T05:28:16;67.28;;;39.42;;
20910;SDS011;10615;42.702;23.314;2023-01-09T05:29:17;57.05;;;36.20;;
20910;SDS011;10615;42.702;23.314;2023-01-09T05:30:18;53.95;;;36.53;;
20910;SDS011;10615;42.702;23.314;2023-01-09T05:31:19;58.20;;;36.45;;
20910;SDS011;10615;42.702;23.314;2023-01-09T05:32:20;63.65;;;40.10;;
20910;SDS011;10615;42.702;23.314;2023-01-09T05:33:21;65.93;;;38.97;;
20910;SDS011;10615;42.702;23.314;2023-01-09T05:34:22;61.33;;;40.40;;
20910;SDS011;10615;42.702;23.314;2023-01-09T05:35:23;59.95;;;40.42;;
20910;SDS011;10615;42.702;23.314;2023-01-09T05:36:24;66.10;;;38.53;;
20910;SDS011;10615;42.702;23.314;2023-01-09T05:37:24;64.07;;;38.53;;
20910;SDS011;10615;42.702;23.314;2023-01-09T05:38:25;65.03;;;38.55;;
20910;SDS011;10615;42.702;23.314;2023-01-09T05:39:26;57.95;;;37.92;;
20910;SDS011;10615;42.702;23.314;2023-01-09T05:40:27;59.13;;;37.72;;
20910;SDS011;10615;42.702;23.314;2023-01-09T05:41:27;59.47;;;37.13;;
20910;SDS011;10615;42.702;23.314;2023-01-09T05:42:28;58.88;;;38.55;;
20910;SDS011;10615;42.702;23.314;2023-01-09T05:43:29;62.88;;;38.78;;
20910;SDS011;10615;42.702;23.314;2023-01-09T05:44:29;56.30;;;36.72;;
20910;SDS011;10615;42.702;23.314;2023-01-09T05:45:30;55.78;;;37.17;;
20910;SDS011;10615;42.702;23.314;2023-01-09T05:46:31;63.42;;;39.05;;
20910;SDS011;10615;42.702;23.314;2023-01-09T05:47:32;65.18;;;40.63;;
20910;SDS011;10615;42.702;23.314;2023-01-09T05:48:33;61.10;;;37.75;;
20910;SDS011;10615;42.702;23.314;2023-01-09T05:49:33;62.13;;;38.97;;
20910;SDS011;10615;42.702;23.314;2023-01-09T05:50:34;55.03;;;36.42;;
20910;SDS011;10615;42.702;23.314;2023-01-09T05:51:35;57.42;;;37.28;;
20910;SDS011;10615;42.702;23.314;2023-01-09T05:52:35;62.55;;;38.22;;
20910;SDS011;10615;42.702;23.314;2023-01-09T05:53:36;60.47;;;37.00;;
20910;SDS011;10615;42.702;23.314;2023-01-09T05:54:37;56.53;;;37.17;;
20910;SDS011;10615;42.702;23.314;2023-01-09T05:55:37;55.97;;;36.10;;
20910;SDS011;10615;42.702;23.314;2023-01-09T05:56:38;61.40;;;36.33;;
20910;SDS011;10615;42.702;23.314;2023-01-09T05:57:39;59.20;;;37.60;;
20910;SDS011;10615;42.702;23.314;2023-01-09T05:58:40;60.80;;;37.50;;
20910;SDS011;10615;42.702;23.314;2023-01-09T05:59:40;64.30;;;39.58;;
20910;SDS011;10615;42.702;23.314;2023-01-09T06:00:41;68.35;;;42.33;;
20910;SDS011;10615;42.702;23.314;2023-01-09T06:01:42;75.70;;;45.08;;
20910;SDS011;10615;42.702;23.314;2023-01-09T06:02:42;70.45;;;43.25;;
20910;SDS011;10615;42.702;23.314;2023-01-09T06:03:43;71.68;;;42.35;;
20910;SDS011;10615;42.702;23.314;2023-01-09T06:04:44;64.20;;;40.17;;
20910;SDS011;10615;42.702;23.314;2023-01-09T06:05:44;62.78;;;40.65;;
20910;SDS011;10615;42.702;23.314;2023-01-09T06:06:45;66.07;;;40.22;;
20910;SDS011;10615;42.702;23.314;2023-01-09T06:07:46;60.78;;;39.92;;
20910;SDS011;10615;42.702;23.314;2023-01-09T06:08:46;62.15;;;39.20;;
20910;SDS011;10615;42.702;23.314;2023-01-09T06:09:47;59.80;;;38.08;;
20910;SDS011;10615;42.702;23.314;2023-01-09T06:10:48;58.90;;;39.03;;
20910;SDS011;10615;42.702;23.314;2023-01-09T06:11:48;61.03;;;40.22;;
20910;SDS011;10615;42.702;23.314;2023-01-09T06:12:50;69.78;;;42.33;;
20910;SDS011;10615;42.702;23.314;2023-01-09T06:13:51;66.45;;;43.40;;
20910;SDS011;10615;42.702;23.314;2023-01-09T06:14:51;62.40;;;41.08;;
20910;SDS011;10615;42.702;23.314;2023-01-09T06:15:52;66.30;;;40.15;;
20910;SDS011;10615;42.702;23.314;2023-01-09T06:16:53;62.05;;;40.70;;
20910;SDS011;10615;42.702;23.314;2023-01-09T06:17:54;61.92;;;40.00;;
20910;SDS011;10615;42.702;23.314;2023-01-09T06:18:55;57.42;;;38.25;;
20910;SDS011;10615;42.702;23.314;2023-01-09T06:19:55;60.75;;;40.28;;
20910;SDS011;10615;42.702;23.314;2023-01-09T06:20:56;66.35;;;42.20;;
20910;SDS011;10615;42.702;23.314;2023-01-09T06:21:57;65.05;;;42.65;;
20910;SDS011;10615;42.702;23.314;2023-01-09T06:22:57;64.82;;;40.50;;
20910;SDS011;10615;42.702;23.314;2023-01-09T06:23:58;60.25;;;40.80;;
20910;SDS011;10615;42.702;23.314;2023-01-09T06:24:59;61.75;;;39.75;;
20910;SDS011;10615;42.702;23.314;2023-01-09T06:26:00;58.67;;;40.50;;
20910;SDS011;10615;42.702;23.314;2023-01-09T06:27:00;61.08;;;40.05;;
20910;SDS011;10615;42.702;23.314;2023-01-09T06:28:01;62.60;;;40.80;;
20910;SDS011;10615;42.702;23.314;2023-01-09T06:29:02;68.05;;;41.42;;
20910;SDS011;10615;42.702;23.314;2023-01-09T06:30:03;63.25;;;43.35;;